Time;durP1;ratioP1;P1;durP2;ratioP2;P2;SDS_P1;SDS_P2;PMS_P1;PMS_P2;Temp;Humidity;BMP_temperature;BMP_pressure;BME280_temperature;BME280_humidity;BME280_pressure;Samples;Min_cycle;Max_cycle;Signal;HPM_P1;HPM_P2
2021/01/02 00:00:27;;;;;;;28.37;13.03;;;1.30;99.90;;;2.11;100.00;97692.69;5012617;28;20998;-79
2021/01/02 00:03:26;;;;;;;29.50;12.90;;;1.30;99.90;;;2.16;100.00;97699.03;5018346;28;20462;-79
2021/01/02 00:06:08;;;;;;;27.73;12.10;;;1.30;99.90;;;2.22;100.00;97695.88;5022790;28;20469;-79
2021/01/02 00:08:42;;;;;;;28.63;13.30;;;1.50;99.90;;;2.20;100.00;97694.41;5018130;28;20464;-79
2021/01/02 00:11:31;;;;;;;26.00;11.80;;;1.40;99.90;;;2.21;100.00;97693.47;5017463;28;20470;-79
2021/01/02 00:14:25;;;;;;;25.43;11.03;;;1.50;99.90;;;2.25;100.00;97699.97;5018932;28;20887;-78
2021/01/02 00:17:51;;;;;;;23.87;11.53;;;1.50;99.90;;;2.12;100.00;97705.44;5016597;28;20461;-79
2021/01/02 00:20:47;;;;;;;21.40;11.00;;;1.40;99.90;;;2.08;100.00;97693.81;4959027;28;20481;-79
2021/01/02 00:23:36;;;;;;;20.10;10.10;;;1.40;99.90;;;1.94;100.00;97704.56;5016975;28;20462;-79
2021/01/02 00:26:16;;;;;;;19.03;10.00;;;1.10;99.90;;;1.88;100.00;97700.78;5013613;28;20803;-78
2021/01/02 00:28:49;;;;;;;24.00;10.57;;;1.10;99.90;;;1.85;100.00;97705.41;5014606;28;20457;-79
2021/01/02 00:32:01;;;;;;;18.50;9.40;;;1.00;99.90;;;1.78;100.00;97709.50;5016965;28;20488;-79
2021/01/02 00:35:06;;;;;;;17.20;9.07;;;1.00;99.90;;;1.90;100.00;97708.38;5013838;28;20478;-79
2021/01/02 00:37:39;;;;;;;15.60;8.27;;;1.20;99.90;;;1.95;100.00;97706.19;5001971;28;20687;-79
2021/01/02 00:40:17;;;;;;;24.47;9.77;;;1.20;99.90;;;1.95;100.00;97706.19;5015761;28;20474;-79
2021/01/02 00:42:51;;;;;;;16.27;8.40;;;1.30;99.90;;;1.96;100.00;97703.47;5016041;28;20463;-79
2021/01/02 00:45:21;;;;;;;16.87;8.93;;;1.40;99.90;;;1.95;100.00;97703.59;5016226;28;20517;-78
2021/01/02 00:47:50;;;;;;;16.63;8.20;;;1.50;99.90;;;1.89;100.00;97697.25;5015870;28;21003;-79
2021/01/02 00:50:20;;;;;;;18.20;8.53;;;1.50;99.90;;;1.82;100.00;97708.25;5014658;28;20470;-79
2021/01/02 00:53:48;;;;;;;35.97;9.93;;;1.20;99.90;;;1.81;100.00;97701.47;5015976;28;20467;-79
2021/01/02 00:56:33;;;;;;;32.50;9.53;;;1.20;99.90;;;1.82;100.00;97700.53;5002602;28;20486;-79
2021/01/02 00:59:52;;;;;;;32.20;10.10;;;1.30;99.90;;;1.81;100.00;97701.47;5014834;28;20498;-79
2021/01/02 01:02:56;;;;;;;35.27;9.87;;;1.30;99.90;;;1.57;100.00;97699.38;5014394;28;20474;-79
2021/01/02 01:05:24;;;;;;;29.70;9.17;;;1.10;99.90;;;1.52;100.00;97699.81;5013881;28;20454;-78
2021/01/02 01:07:54;;;;;;;42.27;11.03;;;0.90;99.90;;;1.51;100.00;97703.34;5015853;28;20471;-79
2021/01/02 01:10:24;;;;;;;25.93;9.67;;;1.00;99.90;;;1.50;100.00;97699.13;5016513;28;20447;-79
2021/01/02 01:13:03;;;;;;;21.47;9.43;;;1.00;99.90;;;1.46;100.00;97697.78;5015474;28;20471;-79
2021/01/02 01:15:35;;;;;;;17.57;9.17;;;0.90;99.90;;;1.53;100.00;97711.72;5014736;28;20479;-79
2021/01/02 01:18:19;;;;;;;19.57;9.47;;;0.90;99.90;;;1.57;100.00;97711.44;5014501;28;20549;-79
2021/01/02 01:20:53;;;;;;;23.33;8.90;;;0.90;99.90;;;1.52;100.00;97715.28;5013500;28;21034;-79
2021/01/02 01:23:48;;;;;;;22.83;9.90;;;0.90;99.90;;;1.51;100.00;97716.22;5016675;28;20463;-78
2021/01/02 01:26:39;;;;;;;39.17;11.00;;;0.80;99.90;;;1.58;100.00;97723.38;5014903;28;20645;-79
2021/01/02 01:29:17;;;;;;;24.87;10.30;;;0.90;99.90;;;1.62;100.00;97727.31;5012689;28;20509;-79
2021/01/02 01:31:47;;;;;;;20.73;9.20;;;1.00;99.90;;;1.54;100.00;97722.84;5016118;28;20516;-78
2021/01/02 01:34:22;;;;;;;19.87;10.43;;;0.90;99.90;;;1.59;100.00;97730.19;5015949;28;20899;-78
2021/01/02 01:36:51;;;;;;;38.13;11.00;;;1.00;99.90;;;1.62;100.00;97729.88;5017584;28;20844;-79
2021/01/02 01:39:23;;;;;;;18.73;8.73;;;1.10;99.90;;;1.60;100.00;97731.81;5012606;28;20498;-79
2021/01/02 01:41:59;;;;;;;20.13;8.20;;;1.00;99.90;;;1.64;100.00;97733.13;5015940;28;20467;-78
2021/01/02 01:44:51;;;;;;;12.90;6.93;;;1.00;99.90;;;1.55;100.00;97733.97;5015088;28;20515;-78
2021/01/02 01:47:23;;;;;;;11.93;6.30;;;0.80;99.90;;;1.43;100.00;97731.53;5012565;28;20474;-79
2021/01/02 01:50:28;;;;;;;14.67;6.80;;;0.70;99.90;;;1.52;100.00;97741.03;5014948;28;20529;-78
2021/01/02 01:53:43;;;;;;;12.30;7.00;;;0.80;99.90;;;1.51;100.00;97739.41;5014553;28;20449;-79
2021/01/02 01:56:18;;;;;;;15.77;7.03;;;0.70;99.90;;;1.49;100.00;97741.28;5014301;28;20490;-79
2021/01/02 01:59:21;;;;;;;14.90;7.30;;;0.70;99.90;;;1.42;100.00;97745.38;5015934;28;20503;-78
2021/01/02 02:01:53;;;;;;;13.97;7.40;;;0.70;99.90;;;1.44;100.00;97735.75;5012962;28;20493;-78
2021/01/02 02:05:04;;;;;;;16.23;6.43;;;0.70;99.90;;;1.34;100.00;97737.53;5014450;28;20459;-79
2021/01/02 02:07:46;;;;;;;13.20;6.60;;;0.70;99.90;;;1.39;100.00;97739.66;5012498;28;20469;-78
2021/01/02 02:10:25;;;;;;;15.70;7.20;;;0.80;99.90;;;1.34;100.00;97734.13;5014741;28;20469;-79
2021/01/02 02:12:55;;;;;;;11.60;6.43;;;0.70;99.90;;;1.37;100.00;97736.44;5016464;28;20508;-78
2021/01/02 02:15:25;;;;;;;17.37;6.80;;;0.70;99.90;;;1.38;100.00;97738.06;5012602;28;20474;-78
2021/01/02 02:18:05;;;;;;;10.80;6.33;;;0.70;99.90;;;1.42;100.00;97742.00;5011343;28;20869;-78
2021/01/02 02:20:35;;;;;;;13.40;6.60;;;0.80;99.90;;;1.39;100.00;97737.91;5013715;28;20461;-78
2021/01/02 02:23:08;;;;;;;9.63;6.10;;;0.70;99.90;;;1.43;100.00;97739.28;5014677;28;20623;-78
2021/01/02 02:26:07;;;;;;;11.87;6.40;;;0.80;99.90;;;1.51;100.00;97743.75;5013222;28;23223;-79
2021/01/02 02:29:22;;;;;;;15.87;6.13;;;1.00;99.90;;;1.52;100.00;97741.03;5014697;28;20469;-78
2021/01/02 02:31:54;;;;;;;13.93;7.00;;;1.00;99.90;;;1.45;100.00;97745.13;5013701;28;20462;-78
2021/01/02 02:34:24;;;;;;;10.80;5.63;;;0.90;99.90;;;1.42;100.00;97740.22;5014611;28;20994;-79
2021/01/02 02:36:52;;;;;;;14.03;6.10;;;0.80;99.90;;;1.36;100.00;97743.34;5013025;28;21049;-79
2021/01/02 02:39:20;;;;;;;13.53;6.30;;;0.70;99.90;;;1.45;100.00;97746.88;5015907;28;21098;-78
2021/01/02 02:41:50;;;;;;;10.77;6.07;;;0.70;99.90;;;1.47;100.00;97743.19;5012517;28;20513;-78
2021/01/02 02:44:24;;;;;;;8.93;5.43;;;0.80;99.90;;;1.50;100.00;97742.91;5013321;28;20524;-79
2021/01/02 02:46:57;;;;;;;8.90;5.50;;;0.90;99.90;;;1.55;100.00;97739.94;5010281;28;20467;-79
2021/01/02 02:49:32;;;;;;;9.90;5.30;;;1.00;99.90;;;1.56;100.00;97740.75;5009027;28;20921;-79
2021/01/02 02:52:12;;;;;;;9.57;5.60;;;1.10;99.90;;;1.52;100.00;97746.19;5014653;28;20477;-79
2021/01/02 02:54:41;;;;;;;8.93;5.80;;;1.00;99.90;;;1.50;100.00;97740.34;5012620;28;21034;-78
2021/01/02 02:57:12;;;;;;;9.10;5.50;;;1.00;99.90;;;1.48;100.00;97739.69;5012178;28;20470;-78
2021/01/02 02:59:40;;;;;;;8.60;5.80;;;1.10;99.90;;;1.41;100.00;97741.19;5015149;28;20501;-78
2021/01/02 03:02:09;;;;;;;9.30;4.87;;;0.80;99.90;;;1.37;100.00;97742.41;5011524;28;20463;-78
2021/01/02 03:04:37;;;;;;;9.90;4.90;;;0.90;99.90;;;1.33;100.00;97743.63;5013998;28;20835;-79
2021/01/02 03:07:06;;;;;;;11.10;4.97;;;0.70;99.90;;;1.30;100.00;97749.06;5013299;28;20462;-78
2021/01/02 03:09:34;;;;;;;12.13;5.00;;;0.70;99.90;;;1.25;100.00;97753.00;5011540;28;20490;-78
2021/01/02 03:12:03;;;;;;;9.00;4.90;;;0.60;99.90;;;1.26;100.00;97760.56;5013134;28;20557;-79
2021/01/02 03:14:30;;;;;;;10.37;4.90;;;0.60;99.90;;;1.24;100.00;97756.50;5014463;28;20494;-78
2021/01/02 03:16:59;;;;;;;12.00;4.03;;;0.50;99.90;;;1.26;100.00;97759.75;5012827;28;20453;-79
2021/01/02 03:19:28;;;;;;;10.53;5.20;;;0.60;99.90;;;1.01;100.00;97759.34;5014222;28;20580;-78
2021/01/02 03:21:56;;;;;;;6.77;4.70;;;0.30;99.90;;;0.94;100.00;97765.16;5014313;28;20454;-78
2021/01/02 03:24:25;;;;;;;8.40;5.53;;;0.20;99.90;;;1.05;100.00;97767.59;5011247;28;20473;-79
2021/01/02 03:26:53;;;;;;;9.20;5.37;;;0.40;99.90;;;1.07;100.00;97758.00;5015055;28;20454;-79
2021/01/02 03:29:21;;;;;;;12.67;5.43;;;0.50;99.90;;;1.07;100.00;97759.75;5012827;28;20853;-78
2021/01/02 03:31:48;;;;;;;7.80;4.43;;;0.50;99.90;;;1.04;100.00;97758.28;5013818;28;20462;-78
2021/01/02 03:34:16;;;;;;;9.03;5.50;;;0.50;99.90;;;0.99;100.00;97768.16;5015676;28;21046;-78
2021/01/02 03:36:43;;;;;;;12.17;4.80;;;0.50;99.90;;;0.92;100.00;97761.91;5012611;28;20462;-78
2021/01/02 03:39:11;;;;;;;10.03;5.30;;;0.40;99.90;;;0.83;100.00;97763.50;5015383;28;20887;-78
2021/01/02 03:41:39;;;;;;;12.57;6.43;;;0.30;99.90;;;0.79;100.00;97756.22;5018432;28;20832;-78
2021/01/02 03:44:09;;;;;;;10.93;5.10;;;0.20;99.90;;;0.84;100.00;97764.31;5019814;28;20948;-79
2021/01/02 03:46:36;;;;;;;8.87;4.47;;;0.40;99.90;;;0.77;100.00;97763.22;5017196;28;20462;-78
2021/01/02 03:49:03;;;;;;;12.63;5.53;;;0.20;99.90;;;0.80;100.00;97763.78;5017923;28;20470;-79
2021/01/02 03:51:31;;;;;;;8.37;5.93;;;0.30;99.90;;;0.83;100.00;97773.00;5016353;28;20990;-79
2021/01/02 03:53:59;;;;;;;12.03;4.90;;;0.30;99.90;;;0.90;100.00;97774.09;5017565;28;20489;-79
2021/01/02 03:56:27;;;;;;;9.63;5.27;;;0.40;99.90;;;0.91;100.00;97766.25;5017406;28;20461;-78
2021/01/02 03:58:55;;;;;;;11.00;4.83;;;0.50;99.90;;;0.95;100.00;97771.94;5015180;28;20509;-78
2021/01/02 04:01:23;;;;;;;11.63;5.83;;;0.50;99.90;;;0.98;100.00;97769.91;5010249;28;20498;-79
2021/01/02 04:03:51;;;;;;;9.63;6.17;;;0.40;99.90;;;0.99;100.00;97763.81;5015685;28;20470;-79
2021/01/02 04:06:24;;;;;;;8.20;4.77;;;0.50;99.90;;;0.93;100.00;97766.94;5013537;28;20470;-79
2021/01/02 04:08:54;;;;;;;7.00;4.80;;;0.40;99.90;;;0.88;100.00;97771.66;5017696;28;20458;-79
2021/01/02 04:11:21;;;;;;;11.77;5.63;;;0.30;99.90;;;0.94;100.00;97765.16;5018830;28;20442;-78
2021/01/02 04:13:49;;;;;;;7.87;4.80;;;0.40;99.90;;;0.93;100.00;97771.25;5015651;28;20482;-78
2021/01/02 04:16:19;;;;;;;9.13;5.43;;;0.40;99.90;;;0.86;100.00;97762.44;5016086;28;20474;-78
2021/01/02 04:18:46;;;;;;;7.50;4.50;;;0.30;99.90;;;0.88;100.00;97765.69;5015888;28;20854;-78
2021/01/02 04:21:14;;;;;;;10.67;6.40;;;0.30;99.90;;;0.92;100.00;97772.19;5016381;28;20516;-78
2021/01/02 04:23:41;;;;;;;8.20;4.97;;;0.30;99.90;;;0.97;100.00;97772.63;5015807;28;20463;-78
2021/01/02 04:26:09;;;;;;;12.43;5.47;;;0.40;99.90;;;1.03;100.00;97769.50;5014782;28;20912;-78
2021/01/02 04:28:36;;;;;;;8.53;5.83;;;0.40;99.90;;;1.03;100.00;97759.22;5015715;28;20454;-79
2021/01/02 04:31:05;;;;;;;10.27;5.50;;;0.40;99.90;;;0.90;100.00;97774.91;5016036;28;20528;-78
2021/01/02 04:33:33;;;;;;;8.90;5.20;;;0.20;99.90;;;0.96;100.00;97771.00;5014331;28;20464;-78
2021/01/02 04:36:02;;;;;;;8.37;5.60;;;0.30;99.90;;;1.00;100.00;97769.78;5015173;28;20976;-78
2021/01/02 04:38:30;;;;;;;8.97;5.27;;;0.30;99.90;;;1.05;100.00;97772.75;5013466;28;20668;-78
2021/01/02 04:40:59;;;;;;;12.13;6.47;;;0.40;99.90;;;1.06;100.00;97764.09;5014924;28;20495;-78
2021/01/02 04:43:27;;;;;;;12.57;6.57;;;0.40;99.90;;;1.06;100.00;97768.41;5014666;28;21070;-78
2021/01/02 04:45:55;;;;;;;9.37;5.00;;;0.40;99.90;;;1.05;100.00;97771.94;5017340;28;20516;-78
2021/01/02 04:48:23;;;;;;;16.30;6.77;;;0.30;99.90;;;0.98;100.00;97775.06;5013415;28;20463;-78
2021/01/02 04:50:51;;;;;;;6.50;4.40;;;0.30;99.90;;;0.90;100.00;97774.09;5018130;28;20528;-78
2021/01/02 04:53:20;;;;;;;8.20;5.20;;;0.20;99.90;;;0.78;100.00;97773.41;5017186;28;20446;-78
2021/01/02 04:55:51;;;;;;;8.47;4.07;;;0.00;99.90;;;0.82;100.00;97771.38;5018675;28;20877;-78
2021/01/02 04:58:22;;;;;;;7.07;4.50;;;0.10;99.90;;;0.76;100.00;97774.50;5016583;28;20564;-79
2021/01/02 05:00:53;;;;;;;11.00;4.73;;;0.10;99.90;;;0.78;100.00;97770.00;5016689;28;20525;-78
2021/01/02 05:03:20;;;;;;;10.43;5.53;;;0.00;99.90;;;0.78;100.00;97775.97;5014461;28;20646;-79
2021/01/02 05:05:51;;;;;;;8.63;4.33;;;0.10;99.90;;;0.78;100.00;97772.59;5016676;28;20455;-79
2021/01/02 05:08:19;;;;;;;11.50;5.87;;;0.10;99.90;;;0.79;100.00;97776.78;5015996;28;21084;-78
2021/01/02 05:10:58;;;;;;;9.50;5.33;;;0.10;99.90;;;0.80;100.00;97768.94;5016907;28;20808;-78
2021/01/02 05:13:30;;;;;;;12.60;5.43;;;0.10;99.90;;;0.74;100.00;97769.47;5006918;28;20490;-78
2021/01/02 05:16:19;;;;;;;8.63;4.93;;;0.10;99.90;;;0.77;100.00;97774.34;5007825;28;21199;-79
2021/01/02 05:18:55;;;;;;;8.80;4.47;;;0.30;99.90;;;0.71;100.00;97774.06;5011610;28;20501;-78
2021/01/02 05:21:25;;;;;;;9.30;5.20;;;0.10;99.90;;;0.67;100.00;97767.53;5014080;28;20462;-79
2021/01/02 05:24:08;;;;;;;14.27;4.70;;;0.20;99.90;;;0.70;100.00;97768.09;5016052;28;20836;-79
2021/01/02 05:26:39;;;;;;;8.47;5.23;;;0.10;99.90;;;0.77;100.00;97773.53;5013549;28;20462;-79
2021/01/02 05:29:17;;;;;;;8.37;5.47;;;0.20;99.90;;;0.79;100.00;97774.22;5012288;28;20572;-79
2021/01/02 05:31:49;;;;;;;12.97;6.20;;;0.30;99.90;;;0.73;100.00;97779.91;5010400;28;20474;-78
2021/01/02 05:34:19;;;;;;;7.30;4.70;;;0.20;99.90;;;0.70;100.00;97772.41;5014794;28;20949;-79
2021/01/02 05:37:00;;;;;;;10.67;5.67;;;0.10;99.90;;;0.61;100.00;97779.19;5013726;28;20516;-79
2021/01/02 05:39:37;;;;;;;10.43;4.73;;;0.00;99.90;;;0.62;100.00;97780.00;5015852;28;20546;-79
2021/01/02 05:42:06;;;;;;;7.80;4.80;;;0.00;99.90;;;0.58;100.00;97778.63;5015433;28;20457;-79
2021/01/02 05:44:38;;;;;;;11.27;5.20;;;0.00;99.90;;;0.34;100.00;97779.78;5015182;28;20443;-79
2021/01/02 05:47:07;;;;;;;7.50;4.53;;;-0.20;99.90;;;0.21;100.00;97792.03;5016468;28;20954;-79
2021/01/02 05:49:39;;;;;;;8.90;4.90;;;-0.40;99.90;;;0.12;100.00;97795.38;5014997;28;20442;-79
2021/01/02 05:52:10;;;;;;;10.47;5.60;;;-0.50;99.90;;;0.21;100.00;97794.59;5017792;28;20446;-79
2021/01/02 05:54:48;;;;;;;10.00;5.13;;;-0.50;99.90;;;0.28;100.00;97798.28;5016706;28;20467;-79
2021/01/02 05:57:26;;;;;;;7.40;4.53;;;-0.40;99.90;;;0.30;100.00;97793.03;5016059;28;20519;-79
2021/01/02 05:59:56;;;;;;;10.60;5.50;;;-0.30;99.90;;;0.33;100.00;97793.59;5014109;28;20936;-79
2021/01/02 06:02:29;;;;;;;11.10;4.63;;;-0.30;99.90;;;0.43;100.00;97789.28;5013955;28;20455;-79
2021/01/02 06:05:03;;;;;;;8.73;5.10;;;-0.20;99.90;;;0.37;100.00;97792.38;5013331;28;20451;-79
2021/01/02 06:07:33;;;;;;;12.70;5.50;;;-0.30;99.90;;;0.39;100.00;97790.47;5014216;28;20450;-79
2021/01/02 06:10:04;;;;;;;8.50;5.13;;;-0.30;99.90;;;0.38;100.00;97794.00;5015830;28;20832;-79
2021/01/02 06:12:34;;;;;;;21.70;5.63;;;-0.30;99.90;;;0.36;100.00;97790.75;5015717;28;20731;-79
2021/01/02 06:15:07;;;;;;;8.20;5.10;;;-0.40;99.90;;;0.49;100.00;97785.38;5015519;28;20888;-79
2021/01/02 06:17:37;;;;;;;8.70;4.87;;;-0.10;99.90;;;0.45;100.00;97787.38;5013966;28;20442;-79
2021/01/02 06:20:08;;;;;;;9.07;5.70;;;0.00;99.90;;;0.44;100.00;97783.22;5014226;28;21002;-78
2021/01/02 06:22:37;;;;;;;8.40;4.87;;;-0.10;99.90;;;0.35;100.00;97788.28;5014836;28;20452;-79
2021/01/02 06:25:07;;;;;;;7.73;4.70;;;-0.30;99.90;;;0.32;100.00;97794.50;5015911;28;20451;-79
2021/01/02 06:27:39;;;;;;;13.17;5.30;;;-0.30;99.90;;;0.37;100.00;97789.00;5016301;28;20443;-79
2021/01/02 06:30:08;;;;;;;10.40;5.57;;;-0.30;99.90;;;0.18;100.00;97797.44;5014549;28;20518;-79
2021/01/02 06:32:43;;;;;;;7.40;4.87;;;-0.60;99.90;;;0.21;100.00;97807.44;5016278;28;20446;-79
2021/01/02 06:35:20;;;;;;;10.20;5.37;;;-0.40;99.90;;;0.31;100.00;97803.16;5017117;28;20457;-78
2021/01/02 06:38:11;;;;;;;8.10;5.13;;;-0.40;99.90;;;0.30;100.00;97813.59;5011995;28;20479;-78
2021/01/02 06:40:42;;;;;;;14.77;5.63;;;-0.30;99.90;;;0.35;100.00;97809.69;5009112;28;21093;-79
2021/01/02 06:43:15;;;;;;;8.13;5.13;;;-0.30;99.90;;;0.37;100.00;97807.81;5011978;28;21110;-79
2021/01/02 06:46:00;;;;;;;8.40;4.97;;;-0.40;99.90;;;0.36;100.00;97810.50;5014196;28;20466;-79
2021/01/02 06:48:37;;;;;;;8.60;4.87;;;-0.40;99.90;;;0.02;100.00;97807.38;5012773;28;20468;-79
2021/01/02 06:51:32;;;;;;;9.07;5.17;;;-0.70;99.90;;;0.06;100.00;97806.19;5011833;28;20966;-78
2021/01/02 06:54:03;;;;;;;10.17;4.87;;;-0.70;99.90;;;0.15;100.00;97804.59;5013801;28;20467;-79
2021/01/02 06:56:36;;;;;;;9.50;4.57;;;-0.40;99.90;;;0.16;100.00;97804.47;5011168;28;20482;-79
2021/01/02 06:59:05;;;;;;;6.30;4.40;;;-0.30;99.90;;;0.16;100.00;97807.03;5011724;28;20561;-78
2021/01/02 07:01:42;;;;;;;11.93;5.30;;;-0.30;99.90;;;0.21;100.00;97812.59;5013417;28;20478;-79
2021/01/02 07:04:10;;;;;;;12.97;5.87;;;-0.40;99.90;;;0.07;100.00;97807.78;5016690;28;20447;-78
2021/01/02 07:06:43;;;;;;;9.80;5.40;;;-0.60;99.90;;;0.10;100.00;97810.13;5016214;28;20943;-78
2021/01/02 07:09:27;;;;;;;8.77;4.93;;;-0.60;99.90;;;0.09;100.00;97812.81;5015174;28;20927;-78
2021/01/02 07:12:15;;;;;;;11.57;5.70;;;-0.60;99.90;;;0.13;100.00;97814.19;5015093;28;20856;-79
2021/01/02 07:14:44;;;;;;;8.03;5.33;;;-0.50;99.90;;;0.06;100.00;97816.47;5016199;28;20474;-79
2021/01/02 07:17:23;;;;;;;12.80;5.47;;;-0.50;99.90;;;0.08;100.00;97813.75;5014553;28;20890;-78
2021/01/02 07:19:51;;;;;;;8.77;5.60;;;-0.40;99.90;;;0.08;100.00;97819.69;5015893;28;20493;-79
2021/01/02 07:22:29;;;;;;;7.83;5.10;;;-0.30;99.90;;;0.06;100.00;97816.47;5015444;28;20450;-79
2021/01/02 07:25:02;;;;;;;9.60;5.23;;;-0.60;99.90;;;0.11;100.00;97826.34;5017561;28;20831;-79
2021/01/02 07:27:33;;;;;;;10.40;5.00;;;-0.50;99.90;;;0.08;100.00;97822.28;5018009;28;20462;-79
2021/01/02 07:30:06;;;;;;;10.03;5.87;;;-0.50;99.90;;;0.05;100.00;97817.38;5016289;28;20490;-79
2021/01/02 07:32:36;;;;;;;8.77;4.80;;;-0.60;99.90;;;0.13;100.00;97824.47;5017536;28;20531;-79
2021/01/02 07:35:07;;;;;;;7.60;4.93;;;-0.40;99.90;;;0.08;100.00;97822.28;5017302;28;20501;-79
2021/01/02 07:37:36;;;;;;;10.93;5.50;;;-0.50;99.90;;;0.03;100.00;97819.28;5016128;28;20441;-79
2021/01/02 07:40:08;;;;;;;10.50;5.00;;;-0.70;99.90;;;0.08;100.00;97819.69;5016421;28;20498;-79
2021/01/02 07:42:38;;;;;;;11.10;6.13;;;-0.70;99.90;;;0.08;100.00;97826.59;5017154;28;20462;-79
2021/01/02 07:45:09;;;;;;;9.27;5.10;;;-0.70;99.90;;;0.03;100.00;97828.75;5016757;28;20447;-79
2021/01/02 07:47:38;;;;;;;7.23;4.13;;;-0.70;99.90;;;0.00;100.00;97830.59;5015586;28;20458;-79
2021/01/02 07:50:10;;;;;;;7.87;4.83;;;-0.70;99.90;;;0.00;100.00;97834.97;5016640;28;20446;-79
2021/01/02 07:52:46;;;;;;;9.30;4.57;;;-0.70;99.90;;;-0.03;100.00;97835.19;5017457;28;21037;-79
2021/01/02 07:55:17;;;;;;;8.20;4.70;;;-0.80;99.90;;;-0.03;100.00;97840.31;5016369;28;21002;-79
2021/01/02 07:57:47;;;;;;;9.27;4.50;;;-0.80;99.90;;;-0.02;100.00;97841.97;5018135;28;20455;-79
2021/01/02 08:00:15;;;;;;;10.00;4.47;;;-0.80;99.90;;;0.10;100.00;97843.53;5016156;28;20522;-79
2021/01/02 08:02:43;;;;;;;10.60;5.17;;;-0.60;99.90;;;0.09;100.00;97830.81;5017863;28;20513;-79
2021/01/02 08:05:14;;;;;;;8.10;4.67;;;-0.60;99.90;;;0.17;100.00;97839.53;5015227;28;20459;-79
2021/01/02 08:07:51;;;;;;;9.33;4.80;;;-0.40;99.90;;;0.18;100.00;97838.56;5017044;28;20877;-79
2021/01/02 08:10:20;;;;;;;8.17;4.63;;;-0.30;99.90;;;0.22;100.00;97837.38;5015730;28;20459;-79
2021/01/02 08:12:51;;;;;;;9.20;5.20;;;-0.30;99.90;;;0.15;100.00;97841.38;5017258;28;20443;-79
2021/01/02 08:15:27;;;;;;;6.80;4.43;;;-0.40;99.90;;;0.23;100.00;97836.44;5015637;28;20463;-79
2021/01/02 08:18:01;;;;;;;6.47;4.60;;;-0.30;99.90;;;0.26;100.00;97846.47;5015722;28;20453;-79
2021/01/02 08:20:28;;;;;;;10.40;4.50;;;-0.30;99.90;;;0.26;100.00;97851.59;5016820;28;20493;-79
2021/01/02 08:22:56;;;;;;;6.47;4.50;;;-0.30;99.90;;;0.30;100.00;97847.84;5016630;28;20446;-79
2021/01/02 08:25:27;;;;;;;5.43;4.00;;;-0.20;99.90;;;0.30;100.00;97847.84;5021556;28;20457;-79
2021/01/02 08:27:57;;;;;;;6.60;4.53;;;-0.30;99.90;;;0.22;100.00;97844.25;5019573;28;20470;-79
2021/01/02 08:30:27;;;;;;;8.00;5.10;;;-0.40;99.90;;;0.27;100.00;97849.84;5020705;28;20581;-79
2021/01/02 08:32:56;;;;;;;7.10;4.80;;;-0.10;99.90;;;0.25;100.00;97855.09;5018133;28;20476;-79
2021/01/02 08:35:28;;;;;;;7.70;4.67;;;-0.30;99.90;;;0.30;100.00;97857.31;5019001;28;20450;-79
2021/01/02 08:38:05;;;;;;;13.10;4.17;;;-0.30;99.90;;;0.22;100.00;97851.97;5019050;28;20451;-79
2021/01/02 08:40:39;;;;;;;7.77;4.40;;;-0.40;99.90;;;0.28;100.00;97856.59;5019259;28;20489;-79
2021/01/02 08:43:07;;;;;;;7.70;4.63;;;-0.40;99.90;;;0.35;100.00;97865.44;5018692;28;20478;-78
2021/01/02 08:45:39;;;;;;;8.50;5.20;;;-0.40;99.90;;;0.33;100.00;97852.72;5019405;28;21027;-79
2021/01/02 08:48:12;;;;;;;10.97;4.53;;;-0.40;99.90;;;0.31;100.00;97858.94;5019210;28;20536;-79
2021/01/02 08:50:41;;;;;;;8.80;5.10;;;-0.30;99.90;;;0.41;100.00;97850.31;5019360;28;20498;-79
2021/01/02 08:53:24;;;;;;;13.67;5.00;;;-0.20;99.90;;;0.44;100.00;97847.50;5019712;28;20451;-78
2021/01/02 08:55:53;;;;;;;9.10;4.67;;;-0.20;99.90;;;0.55;100.00;97853.50;5019550;28;20443;-79
2021/01/02 08:58:31;;;;;;;8.07;4.10;;;0.00;99.90;;;0.46;100.00;97844.78;5020254;28;20457;-79
2021/01/02 09:00:59;;;;;;;7.07;4.60;;;-0.10;99.90;;;0.49;100.00;97852.22;5021171;28;20488;-78
2021/01/02 09:03:26;;;;;;;8.30;4.60;;;-0.10;99.90;;;0.52;100.00;97849.44;5018443;28;20497;-78
2021/01/02 09:05:55;;;;;;;9.60;5.00;;;0.00;99.90;;;0.47;100.00;97849.81;5019978;28;20455;-79
2021/01/02 09:08:23;;;;;;;10.40;5.40;;;-0.10;99.90;;;0.39;100.00;97847.06;5018904;28;20453;-78
2021/01/02 09:10:57;;;;;;;6.83;4.30;;;-0.20;99.90;;;0.54;100.00;97844.13;5020709;28;21010;-79
2021/01/02 09:13:27;;;;;;;8.10;4.77;;;-0.10;99.90;;;0.47;100.00;97839.53;5019410;28;20991;-78
2021/01/02 09:15:58;;;;;;;8.07;5.03;;;-0.10;99.90;;;0.57;100.00;97838.72;5018864;28;20450;-79
2021/01/02 09:18:45;;;;;;;9.40;5.20;;;0.00;99.90;;;0.62;100.00;97836.59;5020018;28;20464;-79
2021/01/02 09:21:31;;;;;;;11.20;5.30;;;0.00;99.90;;;0.69;100.00;97832.56;5019074;28;20454;-79
2021/01/02 09:24:00;;;;;;;9.10;4.93;;;0.00;99.90;;;0.77;100.00;97840.41;5020336;28;20958;-79
2021/01/02 09:26:33;;;;;;;8.47;4.50;;;0.30;99.90;;;0.78;100.00;97837.72;5018805;28;20447;-78
2021/01/02 09:29:11;;;;;;;8.17;4.83;;;0.30;99.90;;;0.82;100.00;97838.28;5019501;28;20443;-79
2021/01/02 09:31:39;;;;;;;8.47;5.27;;;0.30;99.90;;;0.84;100.00;97847.50;5020039;28;20974;-78
2021/01/02 09:34:07;;;;;;;8.50;4.73;;;0.40;99.90;;;0.79;100.00;97848.84;5018066;28;20482;-79
2021/01/02 09:36:37;;;;;;;9.70;4.80;;;0.20;99.90;;;0.77;100.00;97846.38;5016644;28;20488;-79
2021/01/02 09:39:07;;;;;;;7.80;4.70;;;0.10;99.90;;;0.79;100.00;97849.66;5019751;28;20463;-79
2021/01/02 09:41:37;;;;;;;11.60;5.30;;;0.20;99.90;;;0.87;100.00;97848.97;5024934;28;20441;-79
2021/01/02 09:44:05;;;;;;;8.73;5.30;;;0.20;99.90;;;0.95;100.00;97849.97;5019115;28;20446;-79
2021/01/02 09:46:51;;;;;;;9.23;5.37;;;0.30;99.90;;;0.97;100.00;97853.19;5017874;28;20959;-79
2021/01/02 09:49:19;;;;;;;8.80;5.33;;;0.30;99.90;;;0.99;100.00;97847.94;5019396;28;20466;-78
2021/01/02 09:51:47;;;;;;;6.40;4.50;;;0.30;99.90;;;1.03;100.00;97846.72;5018762;28;20450;-78
2021/01/02 09:54:14;;;;;;;10.10;5.70;;;0.30;99.90;;;1.12;100.00;97852.84;5019317;28;20479;-78
2021/01/02 09:56:46;;;;;;;10.23;5.03;;;0.60;99.90;;;1.15;100.00;97853.38;5017494;28;20450;-79
2021/01/02 09:59:15;;;;;;;8.60;5.40;;;0.60;99.90;;;1.19;100.00;97857.31;5018838;28;20871;-79
2021/01/02 10:01:42;;;;;;;8.47;5.50;;;0.60;99.90;;;1.21;100.00;97854.63;5017842;28;20443;-79
2021/01/02 10:04:10;;;;;;;8.50;5.20;;;0.60;99.90;;;1.27;100.00;97849.75;5018386;28;20954;-79
2021/01/02 10:06:44;;;;;;;9.03;5.60;;;0.70;99.90;;;1.24;100.00;97850.03;5017406;28;21106;-79
2021/01/02 10:09:12;;;;;;;12.73;5.60;;;0.60;99.90;;;1.17;100.00;97840.38;5019636;28;20972;-79
2021/01/02 10:11:42;;;;;;;14.37;6.80;;;0.50;99.90;;;1.22;100.00;97848.50;5017384;28;20451;-79
2021/01/02 10:14:11;;;;;;;11.70;5.60;;;0.50;99.90;;;1.32;100.00;97845.00;5016746;28;20478;-79
2021/01/02 10:16:39;;;;;;;16.17;5.37;;;0.70;99.90;;;1.42;100.00;97848.38;5017943;28;20887;-79
2021/01/02 10:19:08;;;;;;;11.00;6.07;;;0.90;99.90;;;1.44;100.00;97843.94;5017146;28;20451;-78
2021/01/02 10:21:36;;;;;;;7.50;5.53;;;0.80;99.90;;;1.49;100.00;97846.91;5016803;28;20446;-79
2021/01/02 10:24:04;;;;;;;9.07;5.70;;;0.90;99.90;;;1.52;100.00;97851.00;5018379;28;20520;-79
2021/01/02 10:26:32;;;;;;;11.17;6.00;;;1.00;99.90;;;1.53;100.00;97843.13;5019246;28;20443;-78
2021/01/02 10:29:04;;;;;;;9.90;5.67;;;0.90;99.90;;;1.58;100.00;97847.06;5019567;28;20440;-79
2021/01/02 10:31:33;;;;;;;11.27;5.63;;;1.00;99.90;;;1.60;100.00;97835.66;5017285;28;20453;-79
2021/01/02 10:34:00;;;;;;;9.10;6.07;;;1.00;99.90;;;1.68;100.00;97829.81;5018386;28;20983;-79
2021/01/02 10:36:28;;;;;;;9.37;6.23;;;1.10;99.90;;;1.73;100.00;97840.53;5017068;28;20959;-79
2021/01/02 10:38:55;;;;;;;11.47;6.07;;;1.20;99.90;;;1.74;100.00;97837.00;5018360;28;20459;-79
2021/01/02 10:41:23;;;;;;;8.50;5.73;;;1.30;99.90;;;1.78;100.00;97828.03;5016846;28;20443;-78
2021/01/02 10:43:51;;;;;;;10.47;6.10;;;1.20;99.90;;;1.80;100.00;97826.16;5017156;28;20988;-79
2021/01/02 10:46:19;;;;;;;11.60;6.13;;;1.20;99.90;;;1.80;100.00;97823.59;5017558;28;20507;-79
2021/01/02 10:48:47;;;;;;;9.10;5.23;;;1.20;99.90;;;1.87;100.00;97833.22;5017131;28;20451;-79